sensor_id;sensor_type;location;lat;lon;timestamp;P1;P2;P0
29460;PMS7003;16428;47.836;35.106;2023-03-03T00:01:53;39.00;35.33;26.00
29460;PMS7003;16428;47.836;35.106;2023-03-03T00:04:20;52.00;38.33;25.67
29460;PMS7003;16428;47.836;35.106;2023-03-03T00:06:48;51.67;43.00;29.67
29460;PMS7003;16428;47.836;35.106;2023-03-03T00:09:15;41.33;37.33;29.00
29460;PMS7003;16428;47.836;35.106;2023-03-03T00:11:53;49.33;43.67;30.00
29460;PMS7003;16428;47.836;35.106;2023-03-03T00:14:29;43.67;36.33;26.00
29460;PMS7003;16428;47.836;35.106;2023-03-03T00:17:01;35.00;32.00;25.67
29460;PMS7003;16428;47.836;35.106;2023-03-03T00:19:46;44.25;38.50;25.00
29460;PMS7003;16428;47.836;35.106;2023-03-03T00:22:28;45.00;38.00;26.00
29460;PMS7003;16428;47.836;35.106;2023-03-03T00:25:23;38.67;37.67;28.33
29460;PMS7003;16428;47.836;35.106;2023-03-03T00:27:50;40.75;30.75;23.50
29460;PMS7003;16428;47.836;35.106;2023-03-03T00:30:23;46.67;33.67;25.00
29460;PMS7003;16428;47.836;35.106;2023-03-03T00:32:53;37.25;32.25;23.00
29460;PMS7003;16428;47.836;35.106;2023-03-03T00:35:26;42.67;33.00;25.00
29460;PMS7003;16428;47.836;35.106;2023-03-03T00:37:57;36.25;31.75;25.25
29460;PMS7003;16428;47.836;35.106;2023-03-03T00:40:37;31.67;31.00;25.67
29460;PMS7003;16428;47.836;35.106;2023-03-03T00:43:27;36.67;32.67;22.67
29460;PMS7003;16428;47.836;35.106;2023-03-03T00:46:01;37.67;25.67;21.00
29460;PMS7003;16428;47.836;35.106;2023-03-03T00:51:11;33.00;27.33;20.00
29460;PMS7003;16428;47.836;35.106;2023-03-03T00:53:51;38.33;29.67;24.00
29460;PMS7003;16428;47.836;35.106;2023-03-03T00:56:19;42.33;34.33;26.00
29460;PMS7003;16428;47.836;35.106;2023-03-03T00:58:49;38.67;33.33;26.00
29460;PMS7003;16428;47.836;35.106;2023-03-03T01:01:17;44.33;36.33;24.00
29460;PMS7003;16428;47.836;35.106;2023-03-03T01:03:49;30.00;27.67;18.33
29460;PMS7003;16428;47.836;35.106;2023-03-03T01:06:17;36.67;32.00;25.00
29460;PMS7003;16428;47.836;35.106;2023-03-03T01:08:44;37.00;26.67;23.33
29460;PMS7003;16428;47.836;35.106;2023-03-03T01:11:13;34.75;31.75;23.25
29460;PMS7003;16428;47.836;35.106;2023-03-03T01:13:44;35.00;31.50;25.25
29460;PMS7003;16428;47.836;35.106;2023-03-03T01:16:17;29.75;28.25;17.00
29460;PMS7003;16428;47.836;35.106;2023-03-03T01:18:48;36.50;28.75;20.25
29460;PMS7003;16428;47.836;35.106;2023-03-03T01:21:16;26.00;20.50;16.50
29460;PMS7003;16428;47.836;35.106;2023-03-03T01:23:44;34.75;28.50;19.50
29460;PMS7003;16428;47.836;35.106;2023-03-03T01:26:11;39.25;28.50;21.75
29460;PMS7003;16428;47.836;35.106;2023-03-03T01:28:39;36.75;31.00;23.75
29460;PMS7003;16428;47.836;35.106;2023-03-03T01:31:06;34.67;32.67;25.00
29460;PMS7003;16428;47.836;35.106;2023-03-03T01:33:34;34.50;28.75;22.25
29460;PMS7003;16428;47.836;35.106;2023-03-03T01:36:03;32.75;27.00;18.00
29460;PMS7003;16428;47.836;35.106;2023-03-03T01:38:33;28.75;23.00;18.00
29460;PMS7003;16428;47.836;35.106;2023-03-03T01:41:05;32.25;28.50;18.50
29460;PMS7003;16428;47.836;35.106;2023-03-03T01:43:34;37.00;23.67;17.33
29460;PMS7003;16428;47.836;35.106;2023-03-03T01:51:54;27.25;23.25;19.75
29460;PMS7003;16428;47.836;35.106;2023-03-03T01:54:29;31.33;25.33;20.33
29460;PMS7003;16428;47.836;35.106;2023-03-03T01:57:05;23.75;22.00;16.25
29460;PMS7003;16428;47.836;35.106;2023-03-03T01:59:40;38.67;28.67;19.67
29460;PMS7003;16428;47.836;35.106;2023-03-03T02:02:12;37.33;28.00;22.00
29460;PMS7003;16428;47.836;35.106;2023-03-03T02:04:42;32.67;22.00;16.33
29460;PMS7003;16428;47.836;35.106;2023-03-03T02:07:09;33.50;27.25;18.00
29460;PMS7003;16428;47.836;35.106;2023-03-03T02:12:34;32.67;28.67;17.33
29460;PMS7003;16428;47.836;35.106;2023-03-03T02:15:16;28.67;28.00;22.00
29460;PMS7003;16428;47.836;35.106;2023-03-03T02:17:44;30.00;28.25;20.00
29460;PMS7003;16428;47.836;35.106;2023-03-03T02:20:16;33.67;26.33;20.33
29460;PMS7003;16428;47.836;35.106;2023-03-03T02:26:08;31.33;28.00;21.00
29460;PMS7003;16428;47.836;35.106;2023-03-03T02:28:39;33.75;25.75;17.00
29460;PMS7003;16428;47.836;35.106;2023-03-03T02:31:09;26.67;23.00;16.67
29460;PMS7003;16428;47.836;35.106;2023-03-03T02:33:43;32.67;27.33;19.67
29460;PMS7003;16428;47.836;35.106;2023-03-03T02:36:17;31.00;27.00;20.67
29460;PMS7003;16428;47.836;35.106;2023-03-03T02:39:17;30.33;25.67;20.33
29460;PMS7003;16428;47.836;35.106;2023-03-03T02:42:06;37.67;33.33;22.33
29460;PMS7003;16428;47.836;35.106;2023-03-03T02:44:39;32.67;26.67;20.00
29460;PMS7003;16428;47.836;35.106;2023-03-03T02:47:08;36.67;32.67;21.00
29460;PMS7003;16428;47.836;35.106;2023-03-03T02:49:35;28.00;23.00;19.67
29460;PMS7003;16428;47.836;35.106;2023-03-03T02:52:04;35.00;30.67;19.67
29460;PMS7003;16428;47.836;35.106;2023-03-03T02:54:33;32.67;28.67;20.67
29460;PMS7003;16428;47.836;35.106;2023-03-03T02:57:01;32.00;24.33;14.67
29460;PMS7003;16428;47.836;35.106;2023-03-03T02:59:29;36.00;31.00;23.67
29460;PMS7003;16428;47.836;35.106;2023-03-03T03:01:58;32.00;28.00;21.67
29460;PMS7003;16428;47.836;35.106;2023-03-03T03:04:27;33.67;32.33;24.33
29460;PMS7003;16428;47.836;35.106;2023-03-03T03:06:55;35.67;29.67;18.67
29460;PMS7003;16428;47.836;35.106;2023-03-03T03:09:23;28.33;24.00;17.00
29460;PMS7003;16428;47.836;35.106;2023-03-03T03:11:51;31.33;25.00;20.00
29460;PMS7003;16428;47.836;35.106;2023-03-03T03:14:24;27.00;25.00;20.67
29460;PMS7003;16428;47.836;35.106;2023-03-03T03:16:51;37.00;28.00;21.00
29460;PMS7003;16428;47.836;35.106;2023-03-03T03:19:19;29.33;27.00;19.67
29460;PMS7003;16428;47.836;35.106;2023-03-03T03:21:47;26.67;25.00;18.33
29460;PMS7003;16428;47.836;35.106;2023-03-03T03:24:14;39.67;37.33;26.33
29460;PMS7003;16428;47.836;35.106;2023-03-03T03:26:42;61.67;48.33;21.67
29460;PMS7003;16428;47.836;35.106;2023-03-03T03:29:10;74.33;57.33;37.33
29460;PMS7003;16428;47.836;35.106;2023-03-03T03:31:38;64.00;51.00;35.00
29460;PMS7003;16428;47.836;35.106;2023-03-03T03:34:05;61.33;50.33;31.33
29460;PMS7003;16428;47.836;35.106;2023-03-03T03:36:33;66.67;54.00;34.33
29460;PMS7003;16428;47.836;35.106;2023-03-03T03:39:20;65.67;52.67;36.67
29460;PMS7003;16428;47.836;35.106;2023-03-03T03:41:48;34.00;33.33;24.67
29460;PMS7003;16428;47.836;35.106;2023-03-03T03:44:15;42.67;41.67;29.67
29460;PMS7003;16428;47.836;35.106;2023-03-03T03:46:43;50.67;42.00;25.00
29460;PMS7003;16428;47.836;35.106;2023-03-03T03:49:11;33.67;31.00;23.00
29460;PMS7003;16428;47.836;35.106;2023-03-03T03:51:39;32.67;29.00;19.67
29460;PMS7003;16428;47.836;35.106;2023-03-03T03:54:08;44.33;41.00;27.00
29460;PMS7003;16428;47.836;35.106;2023-03-03T03:56:35;33.33;23.67;15.33
29460;PMS7003;16428;47.836;35.106;2023-03-03T03:59:04;24.33;18.67;12.67
29460;PMS7003;16428;47.836;35.106;2023-03-03T04:01:33;37.33;31.67;23.67
29460;PMS7003;16428;47.836;35.106;2023-03-03T04:04:01;38.33;31.67;24.67
29460;PMS7003;16428;47.836;35.106;2023-03-03T04:06:30;24.00;14.00;9.00
29460;PMS7003;16428;47.836;35.106;2023-03-03T04:08:59;32.67;28.67;21.00
29460;PMS7003;16428;47.836;35.106;2023-03-03T04:11:27;36.67;28.33;22.67
29460;PMS7003;16428;47.836;35.106;2023-03-03T04:13:54;29.67;25.00;19.00
29460;PMS7003;16428;47.836;35.106;2023-03-03T04:16:21;43.67;31.00;22.00
29460;PMS7003;16428;47.836;35.106;2023-03-03T04:18:49;29.67;26.00;20.67
29460;PMS7003;16428;47.836;35.106;2023-03-03T04:21:16;29.00;27.00;19.00
29460;PMS7003;16428;47.836;35.106;2023-03-03T04:23:44;19.33;17.67;11.33
29460;PMS7003;16428;47.836;35.106;2023-03-03T04:26:11;29.67;24.00;19.33
29460;PMS7003;16428;47.836;35.106;2023-03-03T04:28:41;26.33;26.33;20.67
29460;PMS7003;16428;47.836;35.106;2023-03-03T04:31:09;35.67;33.00;23.33
29460;PMS7003;16428;47.836;35.106;2023-03-03T04:33:36;34.33;28.00;20.33
29460;PMS7003;16428;47.836;35.106;2023-03-03T04:36:04;30.67;25.00;14.00
29460;PMS7003;16428;47.836;35.106;2023-03-03T04:38:32;30.67;30.67;21.00
29460;PMS7003;16428;47.836;35.106;2023-03-03T04:40:59;28.00;27.67;20.67
29460;PMS7003;16428;47.836;35.106;2023-03-03T04:43:27;20.67;17.00;16.67
29460;PMS7003;16428;47.836;35.106;2023-03-03T04:45:56;35.67;34.67;23.67
29460;PMS7003;16428;47.836;35.106;2023-03-03T04:48:24;32.67;30.00;21.33
29460;PMS7003;16428;47.836;35.106;2023-03-03T04:50:52;40.00;39.67;26.67
29460;PMS7003;16428;47.836;35.106;2023-03-03T04:53:20;43.33;30.33;22.33
29460;PMS7003;16428;47.836;35.106;2023-03-03T04:55:51;34.00;30.67;23.00
29460;PMS7003;16428;47.836;35.106;2023-03-03T04:58:20;30.67;25.67;20.33
29460;PMS7003;16428;47.836;35.106;2023-03-03T05:00:54;37.00;31.00;24.67
29460;PMS7003;16428;47.836;35.106;2023-03-03T05:03:22;26.00;21.33;13.67
29460;PMS7003;16428;47.836;35.106;2023-03-03T05:05:51;25.00;25.00;14.33
29460;PMS7003;16428;47.836;35.106;2023-03-03T05:08:19;31.33;25.67;20.00
29460;PMS7003;16428;47.836;35.106;2023-03-03T05:10:50;28.33;25.33;18.67
29460;PMS7003;16428;47.836;35.106;2023-03-03T05:13:18;25.67;21.33;14.67
29460;PMS7003;16428;47.836;35.106;2023-03-03T05:15:49;30.00;24.50;17.50
29460;PMS7003;16428;47.836;35.106;2023-03-03T05:18:18;49.00;42.67;29.00
29460;PMS7003;16428;47.836;35.106;2023-03-03T05:20:48;45.00;30.00;24.00
29460;PMS7003;16428;47.836;35.106;2023-03-03T05:23:16;29.33;24.00;14.00
29460;PMS7003;16428;47.836;35.106;2023-03-03T05:25:48;32.25;28.50;19.50
29460;PMS7003;16428;47.836;35.106;2023-03-03T05:28:17;30.50;30.50;22.00
29460;PMS7003;16428;47.836;35.106;2023-03-03T05:30:45;39.00;31.50;25.00
29460;PMS7003;16428;47.836;35.106;2023-03-03T05:33:12;35.75;27.00;22.00
29460;PMS7003;16428;47.836;35.106;2023-03-03T05:35:41;36.25;29.25;21.00
29460;PMS7003;16428;47.836;35.106;2023-03-03T05:38:09;18.50;17.75;15.50
29460;PMS7003;16428;47.836;35.106;2023-03-03T05:40:38;34.25;30.00;21.25
29460;PMS7003;16428;47.836;35.106;2023-03-03T05:43:05;36.50;28.50;18.00
29460;PMS7003;16428;47.836;35.106;2023-03-03T05:45:35;30.25;30.25;20.25
29460;PMS7003;16428;47.836;35.106;2023-03-03T05:48:02;35.75;29.00;22.75
29460;PMS7003;16428;47.836;35.106;2023-03-03T05:50:31;35.25;33.75;24.75
29460;PMS7003;16428;47.836;35.106;2023-03-03T05:52:59;41.25;30.50;21.50
29460;PMS7003;16428;47.836;35.106;2023-03-03T05:55:26;49.50;38.50;27.25
29460;PMS7003;16428;47.836;35.106;2023-03-03T05:57:56;30.25;25.25;19.75
29460;PMS7003;16428;47.836;35.106;2023-03-03T06:00:23;34.75;29.75;21.25
29460;PMS7003;16428;47.836;35.106;2023-03-03T06:02:51;31.00;24.00;20.00
29460;PMS7003;16428;47.836;35.106;2023-03-03T06:05:19;29.00;20.50;13.50
29460;PMS7003;16428;47.836;35.106;2023-03-03T06:07:47;24.50;22.50;16.00
29460;PMS7003;16428;47.836;35.106;2023-03-03T06:10:15;33.75;28.00;20.25
29460;PMS7003;16428;47.836;35.106;2023-03-03T06:12:43;26.00;20.00;15.25
29460;PMS7003;16428;47.836;35.106;2023-03-03T06:15:11;27.00;24.25;16.50
29460;PMS7003;16428;47.836;35.106;2023-03-03T06:17:41;23.50;21.50;16.25
29460;PMS7003;16428;47.836;35.106;2023-03-03T06:20:08;24.00;20.75;17.25
29460;PMS7003;16428;47.836;35.106;2023-03-03T06:22:36;27.75;25.75;20.75
29460;PMS7003;16428;47.836;35.106;2023-03-03T06:25:05;22.00;22.00;18.50
29460;PMS7003;16428;47.836;35.106;2023-03-03T06:27:34;40.25;33.50;26.00
29460;PMS7003;16428;47.836;35.106;2023-03-03T06:30:02;33.00;25.25;21.75
29460;PMS7003;16428;47.836;35.106;2023-03-03T06:32:31;27.50;25.75;19.25
29460;PMS7003;16428;47.836;35.106;2023-03-03T06:34:59;26.50;19.50;14.50
29460;PMS7003;16428;47.836;35.106;2023-03-03T06:37:26;19.75;17.50;11.75
29460;PMS7003;16428;47.836;35.106;2023-03-03T06:39:53;28.25;26.50;20.00
29460;PMS7003;16428;47.836;35.106;2023-03-03T06:42:22;33.00;22.25;19.00
29460;PMS7003;16428;47.836;35.106;2023-03-03T06:44:50;23.00;23.00;18.50
29460;PMS7003;16428;47.836;35.106;2023-03-03T06:47:18;25.50;22.00;17.25
29460;PMS7003;16428;47.836;35.106;2023-03-03T06:49:47;21.75;19.25;13.75
29460;PMS7003;16428;47.836;35.106;2023-03-03T06:52:16;22.00;18.00;13.75
29460;PMS7003;16428;47.836;35.106;2023-03-03T06:54:48;23.75;21.00;13.00
29460;PMS7003;16428;47.836;35.106;2023-03-03T06:57:30;16.75;13.50;6.25
29460;PMS7003;16428;47.836;35.106;2023-03-03T07:02:43;32.75;26.50;20.25
29460;PMS7003;16428;47.836;35.106;2023-03-03T07:05:15;22.75;19.00;12.75
29460;PMS7003;16428;47.836;35.106;2023-03-03T07:07:45;24.00;21.00;17.00
29460;PMS7003;16428;47.836;35.106;2023-03-03T07:10:30;24.00;20.25;17.25
29460;PMS7003;16428;47.836;35.106;2023-03-03T07:13:01;19.25;14.50;12.50
29460;PMS7003;16428;47.836;35.106;2023-03-03T07:15:43;19.75;17.50;13.25
29460;PMS7003;16428;47.836;35.106;2023-03-03T07:21:12;20.00;19.50;15.00
29460;PMS7003;16428;47.836;35.106;2023-03-03T07:23:44;24.50;18.25;13.75
29460;PMS7003;16428;47.836;35.106;2023-03-03T07:26:14;17.25;16.75;13.50
29460;PMS7003;16428;47.836;35.106;2023-03-03T07:28:55;19.75;15.75;13.00
29460;PMS7003;16428;47.836;35.106;2023-03-03T07:31:28;18.75;18.75;14.75
29460;PMS7003;16428;47.836;35.106;2023-03-03T07:34:01;19.75;17.00;13.25
29460;PMS7003;16428;47.836;35.106;2023-03-03T07:36:54;17.00;15.50;12.50
29460;PMS7003;16428;47.836;35.106;2023-03-03T07:39:35;17.50;14.75;11.75
29460;PMS7003;16428;47.836;35.106;2023-03-03T07:44:51;21.00;16.50;14.50
29460;PMS7003;16428;47.836;35.106;2023-03-03T07:47:22;29.50;22.75;16.25
29460;PMS7003;16428;47.836;35.106;2023-03-03T07:49:59;18.50;16.25;11.75
29460;PMS7003;16428;47.836;35.106;2023-03-03T07:52:40;19.75;15.75;12.75
29460;PMS7003;16428;47.836;35.106;2023-03-03T07:55:19;14.25;14.00;13.00
29460;PMS7003;16428;47.836;35.106;2023-03-03T07:57:53;16.50;14.00;10.00
29460;PMS7003;16428;47.836;35.106;2023-03-03T08:02:55;24.25;13.00;11.00
29460;PMS7003;16428;47.836;35.106;2023-03-03T08:10:37;19.50;17.25;14.75
29460;PMS7003;16428;47.836;35.106;2023-03-03T08:15:45;22.00;21.00;17.00
29460;PMS7003;16428;47.836;35.106;2023-03-03T08:18:22;23.50;19.50;15.00
29460;PMS7003;16428;47.836;35.106;2023-03-03T08:21:08;20.75;19.75;15.00
29460;PMS7003;16428;47.836;35.106;2023-03-03T08:23:39;20.00;19.50;16.75
29460;PMS7003;16428;47.836;35.106;2023-03-03T08:26:07;20.50;20.50;17.00
29460;PMS7003;16428;47.836;35.106;2023-03-03T08:28:35;23.75;22.00;15.50
29460;PMS7003;16428;47.836;35.106;2023-03-03T08:31:03;22.50;19.25;16.50
29460;PMS7003;16428;47.836;35.106;2023-03-03T08:33:45;25.25;23.50;17.25
29460;PMS7003;16428;47.836;35.106;2023-03-03T08:36:13;22.25;19.75;15.00
29460;PMS7003;16428;47.836;35.106;2023-03-03T08:38:41;16.75;16.25;12.25
29460;PMS7003;16428;47.836;35.106;2023-03-03T08:41:09;23.50;23.50;16.25
29460;PMS7003;16428;47.836;35.106;2023-03-03T08:43:37;15.25;15.25;13.50
29460;PMS7003;16428;47.836;35.106;2023-03-03T08:46:05;25.00;17.75;15.25
29460;PMS7003;16428;47.836;35.106;2023-03-03T08:48:33;14.50;14.50;12.50
29460;PMS7003;16428;47.836;35.106;2023-03-03T08:51:00;21.75;19.00;12.75
29460;PMS7003;16428;47.836;35.106;2023-03-03T08:53:28;25.25;15.00;13.25
29460;PMS7003;16428;47.836;35.106;2023-03-03T08:55:57;18.50;14.50;10.75
29460;PMS7003;16428;47.836;35.106;2023-03-03T08:58:26;21.25;15.75;13.25
29460;PMS7003;16428;47.836;35.106;2023-03-03T09:01:01;15.00;15.00;12.50
29460;PMS7003;16428;47.836;35.106;2023-03-03T09:03:49;19.00;16.50;12.50
29460;PMS7003;16428;47.836;35.106;2023-03-03T09:06:17;15.25;15.25;14.00
29460;PMS7003;16428;47.836;35.106;2023-03-03T09:08:47;16.25;16.25;13.25
29460;PMS7003;16428;47.836;35.106;2023-03-03T09:11:18;19.25;16.25;13.75
29460;PMS7003;16428;47.836;35.106;2023-03-03T09:14:15;19.75;19.75;16.25
29460;PMS7003;16428;47.836;35.106;2023-03-03T09:16:47;21.25;19.25;15.00
29460;PMS7003;16428;47.836;35.106;2023-03-03T09:19:20;22.25;20.00;15.00
29460;PMS7003;16428;47.836;35.106;2023-03-03T09:22:10;15.25;10.75;9.25
29460;PMS7003;16428;47.836;35.106;2023-03-03T09:24:46;21.00;14.25;13.00
29460;PMS7003;16428;47.836;35.106;2023-03-03T09:27:49;20.75;18.25;14.25
29460;PMS7003;16428;47.836;35.106;2023-03-03T09:30:26;20.00;16.00;12.25
29460;PMS7003;16428;47.836;35.106;2023-03-03T09:33:01;17.50;15.00;13.00
29460;PMS7003;16428;47.836;35.106;2023-03-03T09:35:44;19.00;12.50;7.50
29460;PMS7003;16428;47.836;35.106;2023-03-03T09:38:16;18.75;18.75;15.75
29460;PMS7003;16428;47.836;35.106;2023-03-03T09:44:21;21.25;18.75;15.00
29460;PMS7003;16428;47.836;35.106;2023-03-03T09:50:21;22.25;19.00;15.75
29460;PMS7003;16428;47.836;35.106;2023-03-03T09:55:50;25.75;20.25;16.00
29460;PMS7003;16428;47.836;35.106;2023-03-03T09:58:27;23.00;18.25;15.00
29460;PMS7003;16428;47.836;35.106;2023-03-03T10:06:27;26.75;21.00;18.75
29460;PMS7003;16428;47.836;35.106;2023-03-03T10:11:55;16.25;16.00;13.00
29460;PMS7003;16428;47.836;35.106;2023-03-03T10:22:55;21.50;14.00;12.75
29460;PMS7003;16428;47.836;35.106;2023-03-03T10:25:41;20.00;15.00;11.00
29460;PMS7003;16428;47.836;35.106;2023-03-03T10:28:41;12.50;12.50;10.50
29460;PMS7003;16428;47.836;35.106;2023-03-03T10:37:12;13.25;11.00;9.00
29460;PMS7003;16428;47.836;35.106;2023-03-03T10:39:31;9.75;9.75;8.00
29460;PMS7003;16428;47.836;35.106;2023-03-03T10:50:20;15.00;10.00;8.75
29460;PMS7003;16428;47.836;35.106;2023-03-03T11:01:22;11.50;11.50;9.00
29460;PMS7003;16428;47.836;35.106;2023-03-03T11:04:16;18.50;12.75;10.25
29460;PMS7003;16428;47.836;35.106;2023-03-03T11:13:01;17.00;15.00;10.50
29460;PMS7003;16428;47.836;35.106;2023-03-03T11:21:18;12.00;12.00;10.50
29460;PMS7003;16428;47.836;35.106;2023-03-03T11:32:56;8.50;8.25;6.50
29460;PMS7003;16428;47.836;35.106;2023-03-03T11:38:27;20.25;17.50;13.25
29460;PMS7003;16428;47.836;35.106;2023-03-03T11:43:53;14.25;13.50;10.75
29460;PMS7003;16428;47.836;35.106;2023-03-03T11:46:38;10.50;10.50;8.00
29460;PMS7003;16428;47.836;35.106;2023-03-03T11:52:13;17.75;13.00;10.00
29460;PMS7003;16428;47.836;35.106;2023-03-03T11:54:53;11.00;9.75;8.25
29460;PMS7003;16428;47.836;35.106;2023-03-03T12:02:55;14.00;14.00;12.25
29460;PMS7003;16428;47.836;35.106;2023-03-03T12:13:58;18.00;14.25;12.25
29460;PMS7003;16428;47.836;35.106;2023-03-03T12:19:14;18.25;17.75;13.75
29460;PMS7003;16428;47.836;35.106;2023-03-03T12:22:17;23.00;19.00;16.00
29460;PMS7003;16428;47.836;35.106;2023-03-03T12:24:56;17.00;17.00;14.00
29460;PMS7003;16428;47.836;35.106;2023-03-03T12:33:04;13.50;13.50;12.50
29460;PMS7003;16428;47.836;35.106;2023-03-03T12:36:04;21.25;19.25;14.75
29460;PMS7003;16428;47.836;35.106;2023-03-03T12:41:36;16.25;14.50;11.25
29460;PMS7003;16428;47.836;35.106;2023-03-03T12:44:22;17.75;17.00;13.00
29460;PMS7003;16428;47.836;35.106;2023-03-03T12:47:14;15.25;15.25;10.50
29460;PMS7003;16428;47.836;35.106;2023-03-03T12:50:00;23.75;19.50;14.50
29460;PMS7003;16428;47.836;35.106;2023-03-03T13:01:02;21.50;18.75;16.75
29460;PMS7003;16428;47.836;35.106;2023-03-03T13:11:41;31.75;27.00;20.00
29460;PMS7003;16428;47.836;35.106;2023-03-03T13:14:47;23.00;21.75;17.50
29460;PMS7003;16428;47.836;35.106;2023-03-03T13:19:57;24.00;24.00;18.75
29460;PMS7003;16428;47.836;35.106;2023-03-03T13:22:37;30.25;27.75;20.50
29460;PMS7003;16428;47.836;35.106;2023-03-03T13:27:51;29.75;26.00;21.50
29460;PMS7003;16428;47.836;35.106;2023-03-03T13:30:23;26.25;26.25;19.00
29460;PMS7003;16428;47.836;35.106;2023-03-03T13:32:58;29.25;22.25;16.25
29460;PMS7003;16428;47.836;35.106;2023-03-03T13:35:44;23.00;20.75;15.25
29460;PMS7003;16428;47.836;35.106;2023-03-03T13:38:19;18.00;17.00;14.25
29460;PMS7003;16428;47.836;35.106;2023-03-03T13:43:56;22.50;18.75;15.75
29460;PMS7003;16428;47.836;35.106;2023-03-03T13:52:57;23.25;22.00;17.75
29460;PMS7003;16428;47.836;35.106;2023-03-03T13:55:32;26.50;21.50;16.25
29460;PMS7003;16428;47.836;35.106;2023-03-03T13:58:21;31.75;25.25;19.25
29460;PMS7003;16428;47.836;35.106;2023-03-03T14:01:00;19.00;17.75;14.00
29460;PMS7003;16428;47.836;35.106;2023-03-03T14:06:47;31.25;22.50;18.00
29460;PMS7003;16428;47.836;35.106;2023-03-03T14:09:30;24.00;21.00;16.75
29460;PMS7003;16428;47.836;35.106;2023-03-03T14:12:25;22.50;19.50;15.25
29460;PMS7003;16428;47.836;35.106;2023-03-03T14:20:33;24.25;22.25;17.25
29460;PMS7003;16428;47.836;35.106;2023-03-03T14:23:12;26.50;23.75;16.00
29460;PMS7003;16428;47.836;35.106;2023-03-03T14:25:53;22.75;18.00;13.75
29460;PMS7003;16428;47.836;35.106;2023-03-03T14:28:46;19.25;18.75;15.00
29460;PMS7003;16428;47.836;35.106;2023-03-03T14:31:17;17.75;17.75;15.50
29460;PMS7003;16428;47.836;35.106;2023-03-03T14:36:57;21.00;18.75;15.00
29460;PMS7003;16428;47.836;35.106;2023-03-03T14:39:37;20.25;17.75;14.00
29460;PMS7003;16428;47.836;35.106;2023-03-03T14:42:14;26.25;20.50;15.75
29460;PMS7003;16428;47.836;35.106;2023-03-03T14:44:58;21.75;21.25;16.50
29460;PMS7003;16428;47.836;35.106;2023-03-03T14:47:28;22.75;20.00;14.25
29460;PMS7003;16428;47.836;35.106;2023-03-03T14:49:56;32.00;25.25;18.75
29460;PMS7003;16428;47.836;35.106;2023-03-03T14:52:32;20.00;18.00;14.25
29460;PMS7003;16428;47.836;35.106;2023-03-03T14:55:26;23.75;23.75;17.50
29460;PMS7003;16428;47.836;35.106;2023-03-03T14:57:59;18.00;16.25;13.25
29460;PMS7003;16428;47.836;35.106;2023-03-03T15:00:28;28.75;20.75;17.00
29460;PMS7003;16428;47.836;35.106;2023-03-03T15:03:03;23.50;21.25;16.25
29460;PMS7003;16428;47.836;35.106;2023-03-03T15:05:49;44.25;35.50;25.75
29460;PMS7003;16428;47.836;35.106;2023-03-03T15:08:29;28.75;24.75;18.25
29460;PMS7003;16428;47.836;35.106;2023-03-03T15:14:08;16.50;15.25;11.00
29460;PMS7003;16428;47.836;35.106;2023-03-03T15:16:42;15.75;15.75;14.50
29460;PMS7003;16428;47.836;35.106;2023-03-03T15:24:59;19.25;16.00;15.00
29460;PMS7003;16428;47.836;35.106;2023-03-03T15:27:41;26.50;24.25;19.00
29460;PMS7003;16428;47.836;35.106;2023-03-03T15:30:28;29.25;29.25;21.50
29460;PMS7003;16428;47.836;35.106;2023-03-03T15:36:14;19.25;19.00;14.25
29460;PMS7003;16428;47.836;35.106;2023-03-03T15:39:15;21.75;17.25;14.50
29460;PMS7003;16428;47.836;35.106;2023-03-03T15:44:25;28.00;21.75;17.75
29460;PMS7003;16428;47.836;35.106;2023-03-03T16:04:14;27.00;26.25;19.75
29460;PMS7003;16428;47.836;35.106;2023-03-03T16:06:45;28.50;26.25;21.25
29460;PMS7003;16428;47.836;35.106;2023-03-03T16:12:23;35.50;34.00;25.25
29460;PMS7003;16428;47.836;35.106;2023-03-03T16:15:05;29.00;25.50;22.00
29460;PMS7003;16428;47.836;35.106;2023-03-03T16:17:43;28.25;24.75;18.50
29460;PMS7003;16428;47.836;35.106;2023-03-03T16:23:29;26.75;21.50;15.75
29460;PMS7003;16428;47.836;35.106;2023-03-03T16:31:39;34.00;32.50;23.75
29460;PMS7003;16428;47.836;35.106;2023-03-03T16:42:27;29.50;23.75;18.75
29460;PMS7003;16428;47.836;35.106;2023-03-03T16:53:09;26.00;21.00;12.50
29460;PMS7003;16428;47.836;35.106;2023-03-03T16:55:51;29.00;23.00;19.75
29460;PMS7003;16428;47.836;35.106;2023-03-03T16:58:29;31.75;26.50;21.00
29460;PMS7003;16428;47.836;35.106;2023-03-03T17:01:07;27.50;27.50;21.25
29460;PMS7003;16428;47.836;35.106;2023-03-03T17:04:00;33.00;28.75;20.25
29460;PMS7003;16428;47.836;35.106;2023-03-03T17:06:47;31.50;23.25;14.00
29460;PMS7003;16428;47.836;35.106;2023-03-03T17:09:21;39.25;35.75;25.75
29460;PMS7003;16428;47.836;35.106;2023-03-03T17:12:16;36.25;35.50;26.00
29460;PMS7003;16428;47.836;35.106;2023-03-03T17:20:28;38.50;32.75;24.75
29460;PMS7003;16428;47.836;35.106;2023-03-03T17:26:32;39.00;36.75;24.50
29460;PMS7003;16428;47.836;35.106;2023-03-03T17:29:27;33.50;33.50;24.50
29460;PMS7003;16428;47.836;35.106;2023-03-03T17:40:48;26.75;25.25;21.00
29460;PMS7003;16428;47.836;35.106;2023-03-03T17:43:28;29.00;28.25;19.75
29460;PMS7003;16428;47.836;35.106;2023-03-03T17:46:08;34.75;32.25;22.75
29460;PMS7003;16428;47.836;35.106;2023-03-03T18:03:15;33.00;26.25;20.50
29460;PMS7003;16428;47.836;35.106;2023-03-03T18:06:03;40.75;32.00;25.00
29460;PMS7003;16428;47.836;35.106;2023-03-03T18:14:11;31.50;30.00;21.75
29460;PMS7003;16428;47.836;35.106;2023-03-03T18:22:49;40.25;33.25;24.25
29460;PMS7003;16428;47.836;35.106;2023-03-03T18:25:18;38.25;33.00;24.00
29460;PMS7003;16428;47.836;35.106;2023-03-03T18:28:13;34.25;31.00;23.75
29460;PMS7003;16428;47.836;35.106;2023-03-03T18:36:54;46.00;35.75;26.00
29460;PMS7003;16428;47.836;35.106;2023-03-03T18:44:43;40.00;37.50;25.75
29460;PMS7003;16428;47.836;35.106;2023-03-03T18:47:11;47.00;40.25;27.00
29460;PMS7003;16428;47.836;35.106;2023-03-03T18:50:00;46.25;40.00;28.25
29460;PMS7003;16428;47.836;35.106;2023-03-03T18:55:47;46.00;40.00;27.50
29460;PMS7003;16428;47.836;35.106;2023-03-03T19:00:46;55.75;42.25;26.75
29460;PMS7003;16428;47.836;35.106;2023-03-03T19:03:35;46.50;39.25;26.50
29460;PMS7003;16428;47.836;35.106;2023-03-03T19:06:55;33.75;33.50;24.25
29460;PMS7003;16428;47.836;35.106;2023-03-03T19:09:18;34.75;26.00;19.00
29460;PMS7003;16428;47.836;35.106;2023-03-03T19:18:46;42.75;37.75;26.75
29460;PMS7003;16428;47.836;35.106;2023-03-03T19:21:17;41.25;35.50;26.75